createdAt,value
2022-11-23T00:01:27.533Z,3.47
2022-11-23T00:03:29.274Z,5.00
2022-11-23T00:05:31.431Z,3.37
2022-11-23T00:07:33.209Z,4.82
2022-11-23T00:09:34.987Z,3.47
2022-11-23T00:11:36.969Z,7.27
2022-11-23T00:13:40.594Z,4.00
2022-11-23T00:15:42.380Z,6.18
2022-11-23T00:17:46.837Z,4.93
2022-11-23T00:19:48.611Z,4.25
2022-11-23T00:21:50.359Z,5.93
2022-11-23T00:23:52.668Z,3.30
2022-11-23T00:25:54.397Z,5.13
2022-11-23T00:27:56.440Z,4.40
2022-11-23T00:29:58.236Z,3.50
2022-11-23T00:32:00.049Z,7.73
2022-11-23T00:34:02.291Z,9.20
2022-11-23T00:36:10.652Z,8.40
2022-11-23T00:38:12.461Z,7.60
2022-11-23T00:40:14.639Z,9.57
2022-11-23T00:42:16.387Z,8.15
2022-11-23T00:44:18.138Z,8.73
2022-11-23T00:46:28.039Z,4.33
2022-11-23T00:48:30.814Z,4.25
2022-11-23T00:50:32.543Z,6.80
2022-11-23T00:52:34.506Z,4.67
2022-11-23T00:54:36.418Z,4.65
2022-11-23T00:56:38.302Z,6.15
2022-11-23T00:58:40.179Z,5.38
2022-11-23T01:00:42.008Z,5.22
2022-11-23T01:02:43.895Z,4.43
2022-11-23T01:04:45.695Z,3.92
2022-11-23T01:06:47.529Z,6.50
2022-11-23T01:08:59.287Z,5.15
2022-11-23T01:11:03.071Z,6.93
2022-11-23T01:13:04.890Z,4.90
2022-11-23T01:15:07.240Z,4.93
2022-11-23T01:17:09.055Z,4.07
2022-11-23T01:19:15.907Z,4.20
2022-11-23T01:21:17.680Z,5.55
2022-11-23T01:23:19.664Z,4.63
2022-11-23T01:25:21.445Z,5.28
2022-11-23T01:27:23.243Z,4.77
2022-11-23T01:29:25.244Z,4.30
2022-11-23T01:31:27.555Z,4.30
2022-11-23T01:33:29.233Z,4.60
2022-11-23T01:35:31.084Z,6.22
2022-11-23T01:37:32.866Z,4.32
2022-11-23T01:39:34.794Z,7.13
2022-11-23T01:41:40.914Z,5.13
2022-11-23T01:43:43.124Z,4.10
2022-11-23T01:45:56.710Z,8.68
2022-11-23T01:47:58.637Z,4.03
2022-11-23T01:50:00.611Z,4.10
2022-11-23T01:52:08.732Z,5.47
2022-11-23T01:54:15.323Z,6.40
2022-11-23T01:56:22.018Z,5.55
2022-11-23T01:58:25.322Z,4.13
2022-11-23T02:00:27.584Z,5.25
2022-11-23T02:02:31.779Z,4.22
2022-11-23T02:04:37.624Z,4.45
2022-11-23T02:06:40.691Z,5.82
2022-11-23T02:08:43.199Z,6.05
2022-11-23T02:10:45.970Z,4.55
2022-11-23T02:12:47.833Z,4.70
2022-11-23T02:14:49.769Z,5.13
2022-11-23T02:16:52.063Z,6.72
2022-11-23T02:18:54.148Z,6.22
2022-11-23T02:20:57.809Z,7.43
2022-11-23T02:23:18.249Z,6.70
2022-11-23T02:25:28.128Z,7.85
2022-11-23T02:27:30.089Z,6.60
2022-11-23T02:29:33.477Z,10.52
2022-11-23T02:31:36.090Z,8.63
2022-11-23T02:33:41.021Z,5.03
2022-11-23T02:35:51.150Z,3.95
2022-11-23T02:37:53.592Z,5.55
2022-11-23T02:39:58.815Z,6.18
2022-11-23T02:42:00.936Z,5.63
2022-11-23T02:44:04.597Z,4.82
2022-11-23T02:46:07.154Z,5.05
2022-11-23T02:48:08.924Z,4.97
2022-11-23T02:50:10.650Z,4.27
2022-11-23T02:52:12.467Z,3.17
2022-11-23T02:54:14.160Z,6.90
2022-11-23T02:56:15.857Z,4.60
2022-11-23T02:58:17.617Z,4.97
2022-11-23T03:00:19.340Z,4.07
2022-11-23T03:02:21.124Z,5.03
2022-11-23T03:04:27.561Z,5.10
2022-11-23T03:06:29.848Z,7.75
2022-11-23T03:08:31.562Z,6.60
2022-11-23T03:10:33.392Z,6.47
2022-11-23T03:12:35.311Z,8.07
2022-11-23T03:14:38.732Z,5.30
2022-11-23T03:16:40.467Z,9.88
2022-11-23T03:18:43.391Z,7.97
2022-11-23T03:20:45.090Z,5.78
2022-11-23T03:22:46.907Z,5.25
2022-11-23T03:24:48.660Z,4.67
2022-11-23T03:26:50.336Z,2.70
2022-11-23T03:28:52.070Z,3.65
2022-11-23T03:30:54.352Z,6.60
2022-11-23T03:32:56.061Z,4.80
2022-11-23T03:34:57.770Z,3.77
2022-11-23T03:36:59.453Z,5.32
2022-11-23T03:39:01.170Z,3.60
2022-11-23T03:41:02.924Z,3.50
2022-11-23T03:43:04.727Z,3.60
2022-11-23T03:45:07.460Z,2.00
2022-11-23T03:47:09.153Z,4.60
2022-11-23T03:49:10.864Z,5.43
2022-11-23T03:51:12.601Z,2.25
2022-11-23T03:53:14.359Z,5.17
2022-11-23T03:55:16.404Z,2.97
2022-11-23T03:57:18.120Z,2.95
2022-11-23T03:59:19.862Z,2.30
2022-11-23T04:01:21.648Z,3.50
2022-11-23T04:03:23.383Z,3.43
2022-11-23T04:05:25.204Z,5.33
2022-11-23T04:07:27.358Z,4.20
2022-11-23T04:09:29.357Z,4.35
2022-11-23T04:11:31.259Z,3.35
2022-11-23T04:13:32.970Z,2.27
2022-11-23T04:15:34.733Z,2.33
2022-11-23T04:17:36.479Z,3.53
2022-11-23T04:19:38.266Z,2.70
2022-11-23T04:21:40.026Z,6.50
2022-11-23T04:23:41.807Z,3.83
2022-11-23T04:25:44.006Z,4.43
2022-11-23T04:27:45.957Z,2.83
2022-11-23T04:29:47.673Z,3.50
2022-11-23T04:31:49.433Z,2.60
2022-11-23T04:33:51.176Z,3.37
2022-11-23T04:35:52.934Z,2.73
2022-11-23T04:37:54.642Z,4.43
2022-11-23T04:39:56.348Z,1.70
2022-11-23T04:41:58.073Z,2.10
2022-11-23T04:43:59.820Z,4.07
2022-11-23T04:46:01.575Z,2.57
2022-11-23T04:48:03.262Z,5.80
2022-11-23T04:50:05.343Z,3.30
2022-11-23T04:52:07.789Z,4.85
2022-11-23T04:54:09.798Z,4.20
2022-11-23T04:56:11.500Z,5.75
2022-11-23T04:58:13.397Z,4.77
2022-11-23T05:00:16.594Z,4.80
2022-11-23T05:02:18.466Z,2.90
2022-11-23T05:04:20.517Z,4.13
2022-11-23T05:06:22.211Z,4.78
2022-11-23T05:08:23.962Z,3.03
2022-11-23T05:10:25.999Z,2.43
2022-11-23T05:12:27.816Z,2.40
2022-11-23T05:14:29.524Z,1.67
2022-11-23T05:16:31.257Z,4.50
2022-11-23T05:18:32.941Z,3.07
2022-11-23T05:20:35.033Z,2.90
2022-11-23T05:22:36.801Z,3.10
2022-11-23T05:24:38.647Z,4.97
2022-11-23T05:26:40.353Z,3.03
2022-11-23T05:28:42.341Z,2.27
2022-11-23T05:30:44.580Z,5.20
2022-11-23T05:32:46.370Z,2.67
2022-11-23T05:34:48.111Z,2.10
2022-11-23T05:36:49.792Z,2.85
2022-11-23T05:38:52.312Z,5.00
2022-11-23T05:40:54.058Z,4.60
2022-11-23T05:42:56.846Z,3.37
2022-11-23T05:44:58.673Z,3.17
2022-11-23T05:47:00.457Z,1.92
2022-11-23T05:49:02.174Z,4.00
2022-11-23T05:51:05.579Z,3.55
2022-11-23T05:53:07.496Z,3.15
2022-11-23T05:55:09.390Z,3.60
2022-11-23T05:57:11.474Z,3.00
2022-11-23T05:59:13.458Z,4.88
2022-11-23T06:01:15.193Z,2.47
2022-11-23T06:03:16.896Z,6.00
2022-11-23T06:05:18.766Z,3.63
2022-11-23T06:07:20.538Z,4.53
2022-11-23T06:09:22.300Z,4.60
2022-11-23T06:11:23.989Z,5.53
2022-11-23T06:13:25.934Z,3.50
2022-11-23T06:15:27.670Z,3.97
2022-11-23T06:17:29.406Z,5.60
2022-11-23T06:19:31.557Z,5.87
2022-11-23T06:21:33.599Z,4.10
2022-11-23T06:23:35.315Z,4.60
2022-11-23T06:25:38.971Z,5.13
2022-11-23T06:27:40.728Z,5.40
2022-11-23T06:29:42.458Z,7.60
2022-11-23T06:31:44.366Z,4.83
2022-11-23T06:33:46.074Z,3.72
2022-11-23T06:35:57.495Z,3.57
2022-11-23T06:37:59.228Z,4.35
2022-11-23T06:40:00.963Z,4.90
2022-11-23T06:42:23.862Z,2.93
2022-11-23T06:44:24.443Z,7.90
2022-11-23T06:46:26.233Z,6.27
2022-11-23T06:48:27.917Z,5.38
2022-11-23T06:50:29.657Z,4.45
2022-11-23T06:52:31.415Z,3.40
2022-11-23T06:54:33.116Z,5.10
2022-11-23T06:56:34.887Z,5.90
2022-11-23T06:58:37.021Z,5.80
2022-11-23T07:00:38.790Z,4.82
2022-11-23T07:02:40.642Z,3.77
2022-11-23T07:04:42.433Z,4.10
2022-11-23T07:06:44.818Z,5.83
2022-11-23T07:08:46.610Z,4.57
2022-11-23T07:10:48.476Z,5.57
2022-11-23T07:12:50.179Z,6.13
2022-11-23T07:14:51.883Z,4.50
2022-11-23T07:16:53.639Z,3.33
2022-11-23T07:18:55.342Z,6.07
2022-11-23T07:20:59.953Z,4.83
2022-11-23T07:23:06.837Z,4.40
2022-11-23T07:25:09.189Z,4.55
2022-11-23T07:27:10.961Z,6.75
2022-11-23T07:29:12.806Z,6.10
2022-11-23T07:31:16.125Z,4.80
2022-11-23T07:33:17.921Z,4.80
2022-11-23T07:35:20.810Z,2.87
2022-11-23T07:37:22.591Z,5.15
2022-11-23T07:39:41.888Z,5.63
2022-11-23T07:41:51.195Z,5.65
2022-11-23T07:43:53.350Z,4.50
2022-11-23T07:45:58.046Z,5.10
2022-11-23T07:48:08.569Z,4.88
2022-11-23T07:50:12.437Z,5.97
2022-11-23T07:52:14.174Z,3.38
2022-11-23T07:54:23.301Z,3.47
2022-11-23T07:56:25.706Z,5.38
2022-11-23T07:58:27.552Z,6.65
2022-11-23T08:00:29.987Z,2.85
2022-11-23T08:02:31.872Z,5.03
2022-11-23T08:04:33.954Z,4.20
2022-11-23T08:06:36.153Z,2.67
2022-11-23T08:08:38.760Z,2.92
2022-11-23T08:12:49.746Z,4.60
2022-11-23T08:14:51.468Z,2.40
2022-11-23T08:16:53.231Z,3.67
2022-11-23T08:18:54.988Z,6.80
2022-11-23T08:21:00.651Z,6.77
2022-11-23T08:23:02.428Z,7.35
2022-11-23T08:25:04.483Z,3.87
2022-11-23T08:27:06.291Z,5.63
2022-11-23T08:29:08.122Z,7.47
2022-11-23T08:31:17.159Z,21.30
2022-11-23T08:33:19.038Z,6.70
2022-11-23T08:35:21.977Z,7.13
2022-11-23T08:37:23.714Z,5.78
2022-11-23T08:39:25.584Z,3.10
2022-11-23T08:41:27.390Z,4.53
2022-11-23T08:43:29.660Z,5.07
2022-11-23T08:45:31.444Z,3.90
2022-11-23T08:47:34.189Z,4.73
2022-11-23T08:51:37.604Z,7.07
2022-11-23T08:53:39.410Z,5.32
2022-11-23T08:55:41.132Z,2.93
2022-11-23T08:57:42.838Z,3.10
2022-11-23T08:59:44.663Z,7.15
2022-11-23T09:01:46.519Z,3.07
2022-11-23T09:03:48.283Z,4.60
2022-11-23T09:05:51.142Z,2.30
2022-11-23T09:07:52.949Z,4.40
2022-11-23T09:09:54.715Z,1.53
2022-11-23T09:11:56.479Z,7.90
2022-11-23T09:13:58.678Z,4.50
2022-11-23T09:16:01.588Z,3.03
2022-11-23T09:18:03.472Z,7.00
2022-11-23T09:20:05.785Z,4.00
2022-11-23T09:22:07.506Z,4.93
2022-11-23T09:24:12.541Z,5.60
2022-11-23T09:26:14.338Z,3.60
2022-11-23T09:28:19.744Z,3.80
2022-11-23T09:30:21.576Z,3.78
2022-11-23T09:32:23.389Z,3.45
2022-11-23T09:34:25.149Z,3.60
2022-11-23T09:36:27.025Z,5.00
2022-11-23T09:38:54.610Z,3.80
2022-11-23T09:41:16.065Z,3.60
2022-11-23T09:43:34.756Z,1.88
2022-11-23T09:45:48.751Z,2.83
2022-11-23T09:48:47.127Z,1.98
2022-11-23T09:50:53.150Z,4.00
2022-11-23T09:52:54.945Z,4.82
2022-11-23T09:55:00.741Z,3.60
2022-11-23T09:57:04.649Z,2.88
2022-11-23T09:59:17.063Z,3.17
2022-11-23T10:01:18.999Z,2.55
2022-11-23T10:03:20.833Z,4.95
2022-11-23T10:05:26.050Z,2.67
2022-11-23T10:07:36.541Z,2.50
2022-11-23T10:09:41.327Z,1.85
2022-11-23T10:12:14.678Z,3.55
2022-11-23T10:14:53.930Z,2.65
2022-11-23T10:17:24.728Z,2.55
2022-11-23T10:19:47.583Z,2.10
2022-11-23T10:22:20.184Z,2.60
2022-11-23T10:24:30.217Z,3.70
2022-11-23T10:26:35.380Z,2.70
2022-11-23T10:28:37.462Z,4.35
2022-11-23T10:30:39.522Z,3.78
2022-11-23T10:33:10.209Z,3.05
2022-11-23T10:35:33.835Z,2.35
2022-11-23T10:37:38.033Z,2.92
2022-11-23T10:39:39.739Z,3.67
2022-11-23T10:41:41.916Z,2.95
2022-11-23T10:44:05.865Z,3.05
2022-11-23T10:46:42.890Z,1.92
2022-11-23T10:48:45.007Z,4.50
2022-11-23T10:50:47.476Z,4.25
2022-11-23T10:53:01.648Z,3.47
2022-11-23T10:55:06.498Z,3.78
2022-11-23T10:57:34.840Z,3.65
2022-11-23T10:59:38.742Z,2.38
2022-11-23T11:01:40.505Z,3.55
2022-11-23T11:03:42.327Z,4.57
2022-11-23T11:06:08.493Z,4.70
2022-11-23T11:08:19.371Z,1.67
2022-11-23T11:10:52.011Z,2.13
2022-11-23T11:12:53.780Z,5.43
2022-11-23T11:14:59.307Z,3.05
2022-11-23T11:17:27.097Z,3.50
2022-11-23T11:19:31.494Z,3.53
2022-11-23T11:21:35.297Z,4.18
2022-11-23T11:23:41.712Z,2.97
2022-11-23T11:25:43.797Z,2.25
2022-11-23T11:27:51.943Z,3.80
2022-11-23T11:29:56.326Z,3.90
2022-11-23T11:32:00.766Z,1.40
2022-11-23T11:34:13.556Z,5.28
2022-11-23T11:36:17.013Z,4.43
2022-11-23T11:38:36.825Z,2.97
2022-11-23T11:40:53.424Z,3.78
2022-11-23T11:43:16.243Z,6.75
2022-11-23T11:45:46.316Z,2.65
2022-11-23T11:48:04.528Z,5.65
2022-11-23T11:50:28.503Z,2.42
2022-11-23T11:52:40.613Z,3.83
2022-11-23T11:54:49.925Z,1.80
2022-11-23T11:56:57.956Z,3.17
2022-11-23T11:59:05.448Z,2.55
2022-11-23T12:01:28.229Z,1.90
2022-11-23T12:03:44.256Z,2.85
2022-11-23T12:05:54.652Z,3.28
2022-11-23T12:08:02.204Z,3.05
2022-11-23T12:10:17.377Z,1.83
2022-11-23T12:12:26.608Z,4.05
2022-11-23T12:14:32.021Z,2.60
2022-11-23T12:16:59.494Z,2.38
2022-11-23T12:19:34.337Z,4.35
2022-11-23T12:22:03.093Z,1.65
2022-11-23T12:24:36.726Z,2.95
2022-11-23T12:29:19.507Z,5.07
2022-11-23T12:31:39.339Z,5.00
2022-11-23T12:34:00.762Z,2.55
2022-11-23T12:36:33.504Z,1.75
2022-11-23T12:38:47.952Z,3.33
2022-11-23T12:41:01.697Z,4.60
2022-11-23T12:43:32.226Z,5.93
2022-11-23T12:46:20.480Z,1.73
2022-11-23T12:48:45.902Z,3.13
2022-11-23T12:51:23.353Z,1.90
2022-11-23T12:53:30.566Z,2.55
2022-11-23T12:55:50.208Z,2.60
2022-11-23T12:58:16.735Z,3.92
2022-11-23T13:00:20.899Z,3.22
2022-11-23T13:02:36.793Z,6.22
2022-11-23T13:05:07.079Z,2.53
2022-11-23T13:07:44.653Z,2.05
2022-11-23T13:09:55.343Z,2.92
2022-11-23T13:12:14.981Z,2.60
2022-11-23T13:14:35.121Z,2.13
2022-11-23T13:17:09.690Z,4.05
2022-11-23T13:19:17.592Z,6.80
2022-11-23T13:21:34.462Z,2.72
2022-11-23T13:23:39.833Z,5.03
2022-11-23T13:25:42.682Z,5.68
2022-11-23T13:27:50.417Z,6.70
2022-11-23T13:29:53.424Z,3.72
2022-11-23T13:32:33.648Z,1.40
2022-11-23T13:34:47.031Z,3.90
2022-11-23T13:37:15.230Z,3.45
2022-11-23T13:39:45.313Z,1.00
2022-11-23T13:42:01.357Z,3.72
2022-11-23T13:44:32.025Z,1.80
2022-11-23T13:46:36.242Z,4.28
2022-11-23T13:48:56.799Z,2.97
2022-11-23T13:51:00.935Z,1.92
2022-11-23T13:53:03.951Z,1.63
2022-11-23T13:55:21.599Z,2.05
2022-11-23T13:57:24.012Z,2.38
2022-11-23T13:59:30.309Z,2.30
2022-11-23T14:02:06.430Z,1.58
2022-11-23T14:04:21.624Z,1.70
2022-11-23T14:06:44.583Z,1.77
2022-11-23T14:08:48.048Z,3.83
2022-11-23T14:10:50.835Z,2.53
2022-11-23T14:15:15.098Z,4.20
2022-11-23T14:17:35.285Z,2.08
2022-11-23T14:19:56.845Z,3.47
2022-11-23T14:22:08.326Z,1.80
2022-11-23T14:24:48.382Z,1.77
2022-11-23T14:30:01.114Z,2.65
2022-11-23T14:32:02.968Z,4.30
2022-11-23T14:34:36.135Z,3.22
2022-11-23T14:37:14.404Z,2.33
2022-11-23T14:39:36.354Z,2.42
2022-11-23T14:41:41.208Z,2.95
2022-11-23T14:43:44.022Z,3.83
2022-11-23T14:45:47.028Z,1.63
2022-11-23T14:47:49.060Z,2.15
2022-11-23T14:49:51.464Z,3.95
2022-11-23T14:51:53.836Z,1.67
2022-11-23T14:54:01.424Z,5.78
2022-11-23T14:56:03.330Z,3.50
2022-11-23T14:58:06.452Z,1.40
2022-11-23T15:00:29.517Z,2.17
2022-11-23T15:02:36.773Z,3.85
2022-11-23T15:04:52.996Z,3.20
2022-11-23T15:07:00.461Z,2.88
2022-11-23T15:09:17.347Z,2.17
2022-11-23T15:11:23.579Z,2.75
2022-11-23T15:13:28.974Z,4.95
2022-11-23T15:15:32.233Z,1.88
2022-11-23T15:17:34.376Z,3.97
2022-11-23T15:19:36.117Z,5.00
2022-11-23T15:21:37.885Z,3.03
2022-11-23T15:23:48.249Z,5.60
2022-11-23T15:25:54.426Z,2.50
2022-11-23T15:27:56.516Z,3.13
2022-11-23T15:30:00.389Z,3.10
2022-11-23T15:34:26.148Z,3.13
2022-11-23T15:36:34.156Z,3.03
2022-11-23T15:38:36.022Z,3.70
2022-11-23T15:40:39.422Z,4.47
2022-11-23T15:42:42.181Z,4.07
2022-11-23T15:47:04.031Z,7.22
2022-11-23T15:49:06.444Z,3.83
2022-11-23T15:51:19.446Z,3.40
2022-11-23T15:55:25.239Z,3.53
2022-11-23T15:57:29.715Z,2.95
2022-11-23T15:59:43.826Z,5.47
2022-11-23T16:01:45.700Z,6.60
2022-11-23T16:04:02.216Z,4.63
2022-11-23T16:06:12.928Z,4.40
2022-11-23T16:08:25.442Z,3.75
2022-11-23T16:10:29.670Z,5.15
2022-11-23T16:12:33.790Z,5.25
2022-11-23T16:14:35.701Z,5.28
2022-11-23T16:16:42.712Z,3.67
2022-11-23T16:18:52.114Z,6.35
2022-11-23T16:21:00.530Z,4.22
2022-11-23T16:23:02.434Z,3.55
2022-11-23T16:25:23.404Z,4.88
2022-11-23T16:27:27.911Z,3.85
2022-11-23T16:29:36.437Z,5.00
2022-11-23T16:31:39.505Z,5.35
2022-11-23T16:33:41.271Z,6.13
2022-11-23T16:35:43.834Z,3.47
2022-11-23T16:37:46.016Z,6.03
2022-11-23T16:39:47.799Z,3.88
2022-11-23T16:41:49.814Z,4.67
2022-11-23T16:43:54.603Z,6.95
2022-11-23T16:45:56.376Z,4.30
2022-11-23T16:48:00.587Z,5.03
2022-11-23T16:50:03.245Z,6.28
2022-11-23T16:54:13.529Z,7.68
2022-11-23T16:56:25.142Z,4.00
2022-11-23T16:58:32.041Z,6.70
2022-11-23T17:00:33.995Z,4.68
2022-11-23T17:02:35.795Z,6.25
2022-11-23T17:04:37.839Z,7.90
2022-11-23T17:06:41.104Z,4.90
2022-11-23T17:08:43.914Z,4.43
2022-11-23T17:10:45.844Z,7.03
2022-11-23T17:12:52.143Z,4.88
2022-11-23T17:14:53.897Z,6.60
2022-11-23T17:16:55.734Z,7.63
2022-11-23T17:18:57.456Z,8.00
2022-11-23T17:20:59.298Z,7.93
2022-11-23T17:23:01.213Z,6.87
2022-11-23T17:25:03.018Z,9.95
2022-11-23T17:27:05.099Z,7.60
2022-11-23T17:29:12.257Z,6.50
2022-11-23T17:31:14.392Z,5.78
2022-11-23T17:33:16.317Z,7.70
2022-11-23T17:35:18.608Z,6.78
2022-11-23T17:37:23.486Z,7.80
2022-11-23T17:39:25.747Z,7.05
2022-11-23T17:41:27.601Z,6.35
2022-11-23T17:43:29.417Z,6.63
2022-11-23T17:45:31.454Z,6.45
2022-11-23T17:47:33.387Z,10.13
2022-11-23T17:49:35.368Z,8.63
2022-11-23T17:51:37.884Z,10.25
2022-11-23T17:53:40.298Z,10.48
2022-11-23T17:55:42.288Z,9.43
2022-11-23T17:57:44.126Z,9.48
2022-11-23T17:59:46.174Z,7.95
2022-11-23T18:02:00.490Z,7.93
2022-11-23T18:04:08.197Z,7.72
2022-11-23T18:06:30.201Z,7.75
2022-11-23T18:08:33.185Z,7.28
2022-11-23T18:10:36.640Z,9.05
2022-11-23T18:12:40.078Z,10.45
2022-11-23T18:14:43.916Z,10.68
2022-11-23T18:16:46.194Z,12.23
2022-11-23T18:18:48.794Z,13.13
2022-11-23T18:22:52.208Z,15.00
2022-11-23T18:24:53.970Z,14.50
2022-11-23T18:26:55.747Z,15.32
2022-11-23T18:29:00.206Z,14.18
2022-11-23T18:31:02.138Z,13.68
2022-11-23T18:33:04.179Z,15.10
2022-11-23T18:35:06.922Z,12.40
2022-11-23T18:37:08.788Z,11.85
2022-11-23T18:39:10.475Z,10.45
2022-11-23T18:41:13.708Z,10.40
2022-11-23T18:43:15.401Z,14.32
2022-11-23T18:45:17.294Z,14.43
2022-11-23T18:47:19.252Z,9.70
2022-11-23T18:49:21.078Z,10.88
2022-11-23T18:51:23.495Z,12.93
2022-11-23T18:53:25.193Z,12.30
2022-11-23T18:55:26.958Z,14.80
2022-11-23T18:57:28.719Z,11.40
2022-11-23T19:01:52.279Z,14.57
2022-11-23T19:03:54.144Z,13.85
2022-11-23T19:06:02.468Z,14.55
2022-11-23T19:08:06.965Z,12.45
2022-11-23T19:10:09.302Z,16.85
2022-11-23T19:12:11.064Z,14.23
2022-11-23T19:14:12.865Z,16.73
2022-11-23T19:16:26.050Z,13.68
2022-11-23T19:18:27.751Z,13.50
2022-11-23T19:20:29.631Z,15.30
2022-11-23T19:22:33.302Z,21.17
2022-11-23T19:24:35.054Z,19.15
2022-11-23T19:26:37.159Z,16.67
2022-11-23T19:28:44.409Z,16.73
2022-11-23T19:30:46.261Z,13.68
2022-11-23T19:32:48.033Z,13.15
2022-11-23T19:34:49.871Z,15.27
2022-11-23T19:36:51.872Z,13.23
2022-11-23T19:38:56.067Z,12.15
2022-11-23T19:40:57.855Z,10.32
2022-11-23T19:42:59.596Z,12.10
2022-11-23T19:45:01.461Z,8.47
2022-11-23T19:47:06.186Z,9.05
2022-11-23T19:49:10.404Z,8.55
2022-11-23T19:51:13.834Z,8.90
2022-11-23T19:53:15.550Z,9.55
2022-11-23T19:55:17.287Z,8.33
2022-11-23T19:57:19.101Z,7.47
2022-11-23T19:59:20.832Z,6.87
2022-11-23T20:01:24.833Z,6.37
2022-11-23T20:03:26.722Z,4.93
2022-11-23T20:05:28.505Z,7.07
2022-11-23T20:07:31.516Z,6.57
2022-11-23T20:09:33.400Z,4.82
2022-11-23T20:11:36.191Z,6.32
2022-11-23T20:13:37.902Z,5.50
2022-11-23T20:15:39.642Z,5.57
2022-11-23T20:17:41.379Z,4.53
2022-11-23T20:19:43.152Z,6.22
2022-11-23T20:21:44.892Z,6.57
2022-11-23T20:23:50.251Z,8.53
2022-11-23T20:25:56.537Z,10.05
2022-11-23T20:27:58.250Z,7.63
2022-11-23T20:29:59.996Z,9.60
2022-11-23T20:32:01.849Z,6.73
2022-11-23T20:34:07.043Z,6.57
2022-11-23T20:36:14.224Z,4.05
2022-11-23T20:38:17.399Z,4.32
2022-11-23T20:40:19.233Z,4.75
2022-11-23T20:42:21.712Z,3.90
2022-11-23T20:44:30.850Z,4.03
2022-11-23T20:47:00.609Z,4.47
2022-11-23T20:48:57.923Z,5.13
2022-11-23T20:50:59.674Z,6.10
2022-11-23T20:53:03.702Z,3.47
2022-11-23T20:55:05.822Z,4.55
2022-11-23T20:57:07.617Z,3.30
2022-11-23T20:59:12.189Z,4.30
2022-11-23T21:01:16.518Z,3.30
2022-11-23T21:03:18.493Z,5.35
2022-11-23T21:05:20.715Z,3.15
2022-11-23T21:07:22.582Z,3.92
2022-11-23T21:09:24.472Z,2.92
2022-11-23T21:11:46.786Z,4.05
2022-11-23T21:14:06.551Z,2.73
2022-11-23T21:16:08.539Z,3.70
2022-11-23T21:18:10.857Z,2.28
2022-11-23T21:20:12.586Z,2.35
2022-11-23T21:22:15.234Z,1.97
2022-11-23T21:26:18.817Z,1.80
2022-11-23T21:28:20.521Z,4.90
2022-11-23T21:30:22.273Z,2.17
2022-11-23T21:32:24.312Z,1.50
2022-11-23T21:34:28.364Z,2.92
2022-11-23T21:36:30.077Z,3.67
2022-11-23T21:38:35.249Z,1.70
2022-11-23T21:40:37.068Z,2.42
2022-11-23T21:42:38.749Z,2.00
2022-11-23T21:44:40.467Z,2.17
2022-11-23T21:46:42.585Z,2.30
2022-11-23T21:48:44.513Z,2.40
2022-11-23T21:50:46.289Z,1.80
2022-11-23T21:52:48.061Z,2.08
2022-11-23T21:54:49.745Z,2.30
2022-11-23T21:56:51.462Z,2.00
2022-11-23T21:58:53.289Z,2.27
2022-11-23T22:00:58.584Z,2.30
2022-11-23T22:03:00.695Z,2.47
2022-11-23T22:05:02.412Z,2.80
2022-11-23T22:07:04.138Z,2.22
2022-11-23T22:09:09.271Z,3.00
2022-11-23T22:11:14.042Z,4.82
2022-11-23T22:13:15.762Z,2.58
2022-11-23T22:15:17.504Z,2.53
2022-11-23T22:17:19.264Z,2.30
2022-11-23T22:19:21.038Z,2.90
2022-11-23T22:21:24.895Z,3.63
2022-11-23T22:23:27.172Z,3.58
2022-11-23T22:25:28.941Z,2.30
2022-11-23T22:27:30.643Z,2.73
2022-11-23T22:29:32.644Z,2.92
2022-11-23T22:31:35.512Z,3.38
2022-11-23T22:33:38.245Z,2.80
2022-11-23T22:37:41.603Z,4.05
2022-11-23T22:39:43.293Z,2.67
2022-11-23T22:41:45.137Z,3.25
2022-11-23T22:43:48.136Z,3.25
2022-11-23T22:45:50.028Z,3.88
2022-11-23T22:47:51.743Z,2.60
2022-11-23T22:49:53.505Z,2.97
2022-11-23T22:51:55.201Z,2.47
2022-11-23T22:53:58.971Z,4.07
2022-11-23T22:56:02.786Z,2.72
2022-11-23T22:58:04.482Z,3.63
2022-11-23T23:00:11.057Z,3.75
2022-11-23T23:02:12.774Z,6.82
2022-11-23T23:04:14.593Z,3.67
2022-11-23T23:06:19.440Z,2.80
2022-11-23T23:08:21.133Z,5.20
2022-11-23T23:10:22.875Z,6.07
2022-11-23T23:12:24.632Z,5.93
2022-11-23T23:14:26.320Z,4.70
2022-11-23T23:16:28.938Z,3.80
2022-11-23T23:20:37.802Z,4.68
2022-11-23T23:22:39.564Z,3.45
2022-11-23T23:24:41.326Z,5.80
2022-11-23T23:26:43.120Z,5.33
2022-11-23T23:28:45.442Z,3.33
2022-11-23T23:30:47.254Z,3.30
2022-11-23T23:32:48.941Z,5.50
2022-11-23T23:34:50.630Z,4.13
2022-11-23T23:36:52.306Z,3.03
2022-11-23T23:38:54.087Z,5.68
2022-11-23T23:40:55.897Z,6.80
2022-11-23T23:43:00.892Z,5.47
2022-11-23T23:45:02.794Z,2.45
2022-11-23T23:47:04.565Z,3.85
2022-11-23T23:49:06.280Z,3.47
2022-11-23T23:51:16.438Z,4.50
2022-11-23T23:53:18.166Z,5.68
2022-11-23T23:55:20.079Z,4.95
2022-11-23T23:57:21.778Z,3.83
2022-11-23T23:59:23.783Z,4.20
